Arden, Delaware
Current Conditions -  °F | °C
As of 12:51 PM on Friday 24 Oct 2014 (Local Time) from KILG Reporting Station
Few Clouds Few Clouds  
Wind Chill: 67°   Ceiling: Unl
Heat Index: 67°   Visibility: 10mi
Dew Point: 46°   Wind: 15mph
Humidity: 47%   Direction: 300°WNW
Pressure: 29.87"   Gusts: 26mph
Location:  39.81°N, 75.49°W
Report Text: KILG 241651Z 30013G23KT 10SM FEW047 19/08 A2987 RMK AO2 SLP114 T01940078
Loading
Personal Weather Stations






























Interactive Weather Map New forecast layout! Learn more

10-Day Weather Forecast

Advertisements
Track Severe Weather on mobile